EST,Max TemperatureF,Mean TemperatureF,Min TemperatureF,Max Dew PointF,MeanDew PointF,Min DewpointF,Max Humidity, Mean Humidity, Min Humidity, Max Sea Level PressureIn, Mean Sea Level PressureIn, Min Sea Level PressureIn, Max VisibilityMiles, Mean VisibilityMiles, Min VisibilityMiles, Max Wind SpeedMPH, Mean Wind SpeedMPH, Max Gust SpeedMPH,PrecipitationIn, CloudCover, Events, WindDirDegrees
2012-12-1,66,48,30,45,36,27,93,69,35,30.42,30.35,30.32,10,10,6,8,1,,0.00,0,,307
2012-12-2,69,52,35,52,44,32,93,76,43,30.40,30.33,30.27,10,8,2,12,2,16,0.00,2,,207
2012-12-3,73,60,48,55,51,45,94,77,44,30.32,30.28,30.24,10,9,3,12,5,16,0.00,1,,241
2012-12-4,71,58,46,54,50,43,93,76,53,30.34,30.26,30.20,10,10,10,12,4,,0.00,3,,232
2012-12-5,71,60,48,55,51,45,94,75,55,30.20,30.17,30.12,10,10,3,10,6,18,0.00,6,,286
2012-12-6,51,46,41,48,35,30,93,66,44,30.31,30.24,30.19,10,9,1,14,4,16,0.00,6,,64
2012-12-7,55,50,44,46,40,30,82,69,53,30.20,30.10,30.01,10,10,10,6,2,,0.00,8,,43
2012-12-8,66,58,50,52,48,46,88,78,56,30.07,30.02,29.99,10,8,2,8,3,,0.00,4,,238
2012-12-9,73,62,51,59,55,48,88,79,61,30.14,30.08,30.00,10,10,9,12,3,16,0.00,4,,200
2012-12-10,71,66,60,61,57,54,94,79,57,29.99,29.83,29.74,10,8,0,20,7,29,0.00,5,,222
2012-12-11,64,56,48,55,45,30,94,64,47,30.13,29.93,29.75,10,10,10,10,5,16,0.00,6,,345
2012-12-12,48,42,37,36,33,30,87,67,50,30.31,30.23,30.13,10,10,10,14,7,20,0.34,8,,43
2012-12-13,51,43,33,36,33,28,93,74,50,30.37,30.32,30.26,10,10,8,13,7,22,0.08,4,,28
2012-12-14,57,40,24,30,26,21,93,66,25,30.38,30.30,30.24,10,10,10,4,0,,0.00,0,,3
2012-12-15,57,42,28,41,31,23,93,62,33,30.27,30.20,30.09,10,10,10,5,0,,0.00,3,,123
2012-12-16,57,54,50,54,49,41,94,85,67,30.09,30.01,29.91,10,7,2,7,2,,0.15,8,Thunderstorm,216
2012-12-17,60,56,53,54,53,52,94,87,77,29.90,29.81,29.69,10,9,3,14,3,21,0.59,7,,224
2012-12-18,62,50,37,54,41,28,94,63,32,29.93,29.78,29.69,10,10,10,15,8,23,0.00,3,,270
2012-12-19,66,52,37,37,32,28,87,55,30,30.12,30.02,29.92,10,10,10,9,4,,0.00,0,,263
2012-12-20,62,48,35,57,43,32,93,76,52,30.14,29.91,29.52,10,10,6,21,5,36,0.45,3,,137
2012-12-21,51,43,35,43,24,18,71,50,34,29.86,29.71,29.56,10,10,10,17,12,33,0.00,3,,275
2012-12-22,51,42,32,19,18,16,60,42,24,30.11,30.02,29.85,10,10,10,15,7,24,0.00,0,,284
2012-12-23,55,38,21,28,20,16,80,49,22,30.16,30.09,30.04,10,10,10,10,3,,0.00,1,,229
2012-12-24,53,48,44,46,36,27,93,64,38,30.05,29.98,29.89,10,10,7,15,7,21,0.03,8,,227
2012-12-25,59,52,44,46,43,39,93,74,48,30.10,30.03,29.94,10,10,0,9,2,,0.01,4,,82
2012-12-26,53,48,42,50,42,34,94,84,70,30.02,29.68,29.43,10,9,2,17,8,23,1.16,8,Thunderstorm,47
2012-12-27,51,42,33,34,29,25,81,64,40,30.07,29.91,29.69,10,10,10,12,5,,0.00,0,,293
2012-12-28,44,34,24,30,25,21,93,66,46,30.19,30.09,29.97,10,10,7,7,0,,0.00,3,,92
2012-12-29,51,44,37,43,34,25,93,72,49,29.98,29.82,29.70,10,8,2,12,3,18,0.62,7,,308
2012-12-30,46,36,26,23,18,16,74,48,29,30.39,30.27,29.99,10,10,10,9,4,17,0.00,0,,300
2012-12-31,53,38,23,27,21,16,86,53,26,30.37,30.28,30.13,10,10,10,17,3,26,0.00,1,,233